Time;durP1;ratioP1;P1;durP2;ratioP2;P2;SDS_P1;SDS_P2;PMS_P1;PMS_P2;Temp;Humidity;BMP_temperature;BMP_pressure;BME280_temperature;BME280_humidity;BME280_pressure;Samples;Min_cycle;Max_cycle;Signal;HPM_P1;HPM_P2
2022/09/13 00:00:38;;;;;;;21.10;18.83;;;19.00;99.90;;;;;;4964935;28;20046;-76
2022/09/13 00:03:04;;;;;;;22.67;19.50;;;18.90;99.90;;;;;;4985101;28;20038;-76
2022/09/13 00:05:30;;;;;;;22.75;19.42;;;18.90;99.90;;;;;;4979788;28;20376;-76
2022/09/13 00:07:56;;;;;;;25.67;20.20;;;18.80;99.90;;;;;;4986314;28;20058;-76
2022/09/13 00:10:22;;;;;;;21.35;18.35;;;18.80;99.90;;;;;;4983037;28;20034;-76
2022/09/13 00:12:48;;;;;;;19.50;17.30;;;18.80;99.90;;;;;;4968201;28;20045;-76
2022/09/13 00:15:14;;;;;;;23.48;18.02;;;18.70;99.90;;;;;;4981742;28;20405;-76
2022/09/13 00:17:40;;;;;;;22.00;18.08;;;18.60;99.90;;;;;;4967235;28;20561;-76
2022/09/13 00:20:07;;;;;;;19.77;17.80;;;18.60;99.90;;;;;;4982498;28;20512;-76
2022/09/13 00:22:33;;;;;;;19.67;16.85;;;18.60;99.90;;;;;;4980591;28;20034;-76
2022/09/13 00:24:58;;;;;;;20.15;17.85;;;18.50;99.90;;;;;;4998715;28;20434;-76
2022/09/13 00:27:24;;;;;;;19.33;17.33;;;18.50;99.90;;;;;;4986716;28;20058;-76
2022/09/13 00:29:50;;;;;;;21.05;18.63;;;18.40;99.90;;;;;;4997549;28;20050;-76
2022/09/13 00:32:16;;;;;;;20.38;18.38;;;18.40;99.90;;;;;;5006328;28;20099;-76
2022/09/13 00:34:42;;;;;;;20.70;18.50;;;18.30;99.90;;;;;;4990784;28;20432;-76
2022/09/13 00:37:08;;;;;;;19.92;17.77;;;18.40;99.90;;;;;;4985273;28;20039;-77
2022/09/13 00:39:34;;;;;;;20.23;18.17;;;18.40;99.90;;;;;;4980241;28;20050;-77
2022/09/13 00:42:00;;;;;;;21.23;19.13;;;18.40;99.90;;;;;;4970892;28;20050;-77
2022/09/13 00:44:57;;;;;;;21.40;19.23;;;18.40;99.90;;;;;;4983906;28;20042;-76
2022/09/13 00:47:35;;;;;;;20.40;18.38;;;18.40;99.90;;;;;;4992332;28;20048;-76
2022/09/13 00:50:22;;;;;;;19.95;18.08;;;18.40;99.90;;;;;;4984408;28;20100;-76
2022/09/13 00:52:59;;;;;;;20.45;18.45;;;18.40;99.90;;;;;;4986434;28;20145;-76
2022/09/13 00:55:48;;;;;;;21.20;19.10;;;18.40;99.90;;;;;;4998308;28;20058;-76
2022/09/13 00:58:24;;;;;;;21.10;19.02;;;18.30;99.90;;;;;;4980442;28;20051;-76
2022/09/13 01:00:50;;;;;;;20.50;18.40;;;18.40;99.90;;;;;;4984455;28;20161;-76
2022/09/13 01:03:19;;;;;;;19.85;17.85;;;18.30;99.90;;;;;;4998630;28;20107;-77
2022/09/13 01:05:49;;;;;;;19.60;17.38;;;18.30;99.90;;;;;;4985326;28;20049;-76
2022/09/13 01:08:21;;;;;;;20.08;17.65;;;18.40;99.90;;;;;;4980796;28;20069;-76
2022/09/13 01:10:51;;;;;;;19.20;17.25;;;18.30;99.90;;;;;;4979388;28;20996;-76
2022/09/13 01:13:23;;;;;;;20.38;18.15;;;18.30;99.90;;;;;;4979702;28;20474;-76
2022/09/13 01:15:49;;;;;;;20.10;18.00;;;18.40;99.90;;;;;;4981193;28;20050;-76
2022/09/13 01:18:16;;;;;;;19.20;17.33;;;18.30;99.90;;;;;;4980450;28;20113;-76
2022/09/13 01:21:15;;;;;;;19.73;17.63;;;18.30;99.90;;;;;;4982430;28;20070;-76
2022/09/13 01:24:08;;;;;;;18.13;16.42;;;18.30;99.90;;;;;;4974538;28;20077;-76
2022/09/13 01:27:04;;;;;;;20.88;18.95;;;18.30;99.90;;;;;;4983016;28;20085;-76
2022/09/13 01:29:39;;;;;;;18.58;16.88;;;18.30;99.90;;;;;;4955195;28;20062;-76
2022/09/13 01:32:23;;;;;;;19.67;17.33;;;18.30;99.90;;;;;;4981139;28;20560;-76
2022/09/13 01:35:22;;;;;;;20.60;17.73;;;18.30;99.90;;;;;;4978979;28;20038;-76
2022/09/13 01:38:18;;;;;;;18.63;16.75;;;18.30;99.90;;;;;;4938692;28;20069;-76
2022/09/13 01:41:21;;;;;;;18.13;16.27;;;18.20;99.90;;;;;;4983512;28;20042;-76
2022/09/13 01:44:22;;;;;;;18.05;16.23;;;18.30;99.90;;;;;;4995668;28;20045;-76
2022/09/13 01:47:18;;;;;;;18.38;16.40;;;18.20;99.90;;;;;;4981762;28;20081;-75
2022/09/13 01:50:08;;;;;;;20.15;16.30;;;18.20;99.90;;;;;;4978410;28;20445;-76
2022/09/13 01:52:37;;;;;;;18.67;16.88;;;18.20;99.90;;;;;;4980242;28;20137;-76
2022/09/13 01:55:22;;;;;;;17.67;15.98;;;18.20;99.90;;;;;;4963794;28;20050;-76
2022/09/13 01:58:02;;;;;;;18.20;16.50;;;18.20;99.90;;;;;;4966090;28;20138;-76
2022/09/13 02:00:33;;;;;;;18.50;16.70;;;18.20;99.90;;;;;;4981041;28;20537;-76
2022/09/13 02:03:32;;;;;;;18.90;17.10;;;18.10;99.90;;;;;;4998148;28;20574;-76
2022/09/13 02:06:05;;;;;;;18.23;16.42;;;18.10;99.90;;;;;;4963378;28;20058;-76
2022/09/13 02:08:55;;;;;;;18.27;16.48;;;18.10;99.90;;;;;;4979290;28;20073;-76
2022/09/13 02:11:21;;;;;;;19.45;17.52;;;18.10;99.90;;;;;;4977025;28;20069;-76
2022/09/13 02:13:55;;;;;;;19.73;17.73;;;18.10;99.90;;;;;;4964642;28;20061;-76
2022/09/13 02:16:32;;;;;;;19.58;17.45;;;18.10;99.90;;;;;;4979134;28;20449;-76
2022/09/13 02:19:13;;;;;;;18.50;16.50;;;18.10;99.90;;;;;;4958189;28;20087;-76
2022/09/13 02:21:43;;;;;;;17.98;16.27;;;18.10;99.90;;;;;;4983597;28;20051;-76
2022/09/13 02:24:34;;;;;;;19.50;17.42;;;18.20;99.90;;;;;;4978582;28;20049;-76
2022/09/13 02:27:20;;;;;;;18.60;16.83;;;18.10;99.90;;;;;;4995356;28;20058;-76
2022/09/13 02:29:49;;;;;;;19.45;17.50;;;18.10;99.90;;;;;;4959599;28;20096;-76
2022/09/13 02:32:19;;;;;;;19.52;17.63;;;18.10;99.90;;;;;;4982379;28;20077;-76
2022/09/13 02:34:52;;;;;;;20.92;18.73;;;18.10;99.90;;;;;;4987361;28;20488;-76
2022/09/13 02:37:19;;;;;;;19.95;17.95;;;18.10;99.90;;;;;;4983143;28;20046;-76
2022/09/13 02:39:56;;;;;;;19.25;17.45;;;18.00;99.90;;;;;;4965990;28;20050;-76
2022/09/13 02:42:42;;;;;;;19.48;17.63;;;18.10;99.90;;;;;;4984087;28;20295;-76
2022/09/13 02:45:09;;;;;;;19.83;17.87;;;18.10;99.90;;;;;;4994527;28;20046;-76
2022/09/13 02:47:53;;;;;;;20.10;18.13;;;18.10;99.90;;;;;;4985817;28;20056;-76
2022/09/13 02:50:51;;;;;;;20.35;18.33;;;18.00;99.90;;;;;;4978739;28;20038;-76
2022/09/13 02:53:35;;;;;;;21.40;19.17;;;18.00;99.90;;;;;;4994326;28;20054;-76
2022/09/13 02:56:24;;;;;;;21.52;19.52;;;18.00;99.90;;;;;;4966476;28;20081;-76
2022/09/13 02:59:07;;;;;;;21.52;19.27;;;18.00;99.90;;;;;;4967376;28;20081;-76
2022/09/13 03:01:35;;;;;;;21.17;19.08;;;18.00;99.90;;;;;;4982917;28;20051;-76
2022/09/13 03:04:02;;;;;;;23.25;20.70;;;18.00;99.90;;;;;;4967731;28;20058;-76
2022/09/13 03:06:28;;;;;;;22.88;20.58;;;18.00;99.90;;;;;;4996991;28;20038;-76
2022/09/13 03:08:57;;;;;;;21.95;19.83;;;17.90;99.90;;;;;;4964884;28;20141;-76
2022/09/13 03:11:48;;;;;;;22.75;20.45;;;18.00;99.90;;;;;;4982638;28;20039;-76
2022/09/13 03:14:31;;;;;;;22.85;20.63;;;18.00;99.90;;;;;;4984140;28;20790;-76
2022/09/13 03:16:59;;;;;;;22.98;20.63;;;18.00;99.90;;;;;;4983080;28;21970;-75
2022/09/13 03:19:59;;;;;;;24.13;21.63;;;18.00;99.90;;;;;;4965088;28;20050;-76
2022/09/13 03:22:29;;;;;;;22.85;20.65;;;18.00;99.90;;;;;;4981484;28;20133;-76
2022/09/13 03:25:16;;;;;;;23.83;21.30;;;18.00;99.90;;;;;;4965943;28;20050;-76
2022/09/13 03:27:59;;;;;;;26.63;23.55;;;18.00;99.90;;;;;;4967370;28;20082;-76
2022/09/13 03:30:26;;;;;;;24.77;22.20;;;18.00;99.90;;;;;;4994115;28;20046;-76
2022/09/13 03:33:03;;;;;;;23.55;21.25;;;17.90;99.90;;;;;;4966329;28;20069;-76
2022/09/13 03:36:12;;;;;;;24.52;22.25;;;18.00;99.90;;;;;;4963057;28;20053;-75
2022/09/13 03:38:46;;;;;;;26.95;24.20;;;18.00;99.90;;;;;;4970451;28;20104;-76
2022/09/13 03:41:21;;;;;;;25.92;23.17;;;18.00;99.90;;;;;;4964515;28;20392;-76
2022/09/13 03:43:52;;;;;;;26.60;23.80;;;18.00;99.90;;;;;;4985612;28;20034;-76
2022/09/13 03:46:29;;;;;;;28.52;25.50;;;18.00;99.90;;;;;;4984871;28;20548;-76
2022/09/13 03:48:59;;;;;;;28.25;25.35;;;18.00;99.90;;;;;;4997596;28;20062;-75
2022/09/13 03:51:26;;;;;;;28.25;25.38;;;18.00;99.90;;;;;;4982087;28;20559;-76
2022/09/13 03:53:57;;;;;;;27.80;24.90;;;18.00;99.90;;;;;;4966517;28;20069;-76
2022/09/13 03:56:23;;;;;;;27.92;25.08;;;18.00;99.90;;;;;;4982003;28;20057;-76
2022/09/13 03:58:49;;;;;;;28.92;25.85;;;18.00;99.90;;;;;;4998225;28;20046;-77
2022/09/13 04:01:20;;;;;;;28.77;25.88;;;18.00;99.90;;;;;;4980155;28;20054;-76
2022/09/13 04:03:46;;;;;;;29.98;26.85;;;18.00;99.90;;;;;;4995259;28;20038;-76
2022/09/13 04:06:12;;;;;;;28.98;26.08;;;18.00;99.90;;;;;;4983735;28;20042;-76
2022/09/13 04:08:38;;;;;;;28.50;25.25;;;18.00;99.90;;;;;;4966442;28;20046;-76
2022/09/13 04:11:04;;;;;;;28.02;25.30;;;18.00;99.90;;;;;;4981855;28;20073;-76
2022/09/13 04:13:29;;;;;;;27.98;25.00;;;18.00;99.90;;;;;;4967702;28;20042;-76
2022/09/13 04:16:01;;;;;;;27.38;24.48;;;18.00;99.90;;;;;;4999881;28;20129;-76
2022/09/13 04:18:27;;;;;;;27.90;24.77;;;18.00;99.90;;;;;;4962743;28;21264;-76
2022/09/13 04:20:58;;;;;;;28.05;25.08;;;18.00;99.90;;;;;;4958688;28;20096;-76
2022/09/13 04:23:25;;;;;;;27.85;25.00;;;18.00;99.90;;;;;;5000300;28;20081;-76
2022/09/13 04:25:51;;;;;;;;;;;18.00;99.90;;;;;;4996092;28;20053;-76
2022/09/13 04:28:17;;;;;;;26.73;24.00;;;18.00;99.90;;;;;;4964348;28;19922;-76
2022/09/13 04:30:44;;;;;;;28.58;25.60;;;18.00;99.90;;;;;;4984388;28;20046;-76
2022/09/13 04:33:10;;;;;;;30.13;26.88;;;18.00;99.90;;;;;;4982945;28;20038;-76
2022/09/13 04:35:38;;;;;;;29.58;26.58;;;18.00;99.90;;;;;;4961712;28;20053;-76
2022/09/13 04:38:04;;;;;;;30.13;26.92;;;18.00;99.90;;;;;;4979805;28;20038;-74
2022/09/13 04:40:30;;;;;;;29.98;26.73;;;18.00;99.90;;;;;;4960000;28;20054;-76
2022/09/13 04:42:55;;;;;;;28.35;25.48;;;18.00;99.90;;;;;;4984328;28;20093;-76
2022/09/13 04:45:21;;;;;;;29.42;26.40;;;18.00;99.90;;;;;;4998486;28;20050;-78
2022/09/13 04:47:52;;;;;;;28.45;25.58;;;18.00;99.90;;;;;;4978432;28;20686;-78
2022/09/13 04:50:19;;;;;;;28.15;25.15;;;18.00;99.90;;;;;;4978819;28;20038;-78
2022/09/13 04:52:45;;;;;;;29.77;26.85;;;18.00;99.90;;;;;;4978575;28;20068;-78
2022/09/13 04:55:11;;;;;;;27.63;24.77;;;18.00;99.90;;;;;;4985880;28;20046;-78
2022/09/13 04:57:37;;;;;;;27.33;24.33;;;18.00;99.90;;;;;;4980262;28;20052;-78
2022/09/13 05:00:03;;;;;;;27.77;24.85;;;18.00;99.90;;;;;;4984270;28;20069;-78
2022/09/13 05:02:29;;;;;;;27.55;24.63;;;18.00;99.90;;;;;;4983102;28;20485;-78
2022/09/13 05:04:55;;;;;;;27.77;24.98;;;18.00;99.90;;;;;;4986177;28;20109;-80
2022/09/13 05:07:20;;;;;;;26.17;23.48;;;18.00;99.90;;;;;;4985515;28;20038;-76
2022/09/13 05:09:46;;;;;;;25.80;23.23;;;18.00;99.90;;;;;;4994507;28;20137;-75
2022/09/13 05:12:12;;;;;;;26.80;24.10;;;18.00;99.90;;;;;;4981376;28;20078;-75
2022/09/13 05:14:39;;;;;;;27.25;24.60;;;18.00;99.90;;;;;;4984946;28;20070;-74
2022/09/13 05:17:04;;;;;;;26.70;24.08;;;18.00;99.90;;;;;;4995872;28;20060;-75
2022/09/13 05:19:30;;;;;;;26.42;23.70;;;18.00;99.90;;;;;;4979598;28;20050;-75
2022/09/13 05:21:55;;;;;;;29.48;26.15;;;18.00;99.90;;;;;;4963654;28;20113;-75
2022/09/13 05:24:22;;;;;;;28.27;24.58;;;18.00;99.90;;;;;;4960062;28;20085;-76
2022/09/13 05:26:47;;;;;;;29.10;26.13;;;18.00;99.90;;;;;;4980216;28;20049;-79
2022/09/13 05:29:13;;;;;;;29.90;26.83;;;18.00;99.90;;;;;;4975041;28;20655;-77
2022/09/13 05:31:43;;;;;;;32.50;27.88;;;18.00;99.90;;;;;;4978461;28;20490;-77
2022/09/13 05:34:11;;;;;;;31.67;27.88;;;18.00;99.90;;;;;;4983178;28;20125;-77
2022/09/13 05:36:37;;;;;;;30.70;27.42;;;18.10;99.90;;;;;;4995748;28;20058;-77
2022/09/13 05:39:14;;;;;;;30.33;27.25;;;18.00;99.90;;;;;;4975416;28;20050;-77
2022/09/13 05:41:40;;;;;;;31.20;27.90;;;18.10;99.90;;;;;;4958675;28;20398;-77
2022/09/13 05:44:06;;;;;;;32.70;29.10;;;18.00;99.90;;;;;;4991820;28;20049;-78
2022/09/13 05:46:32;;;;;;;30.70;27.50;;;18.00;99.90;;;;;;4982308;28;20050;-78
2022/09/13 05:48:58;;;;;;;33.80;29.88;;;18.00;99.90;;;;;;4965683;28;20077;-78
2022/09/13 05:51:25;;;;;;;32.50;29.10;;;18.00;99.90;;;;;;4983818;28;20172;-79
2022/09/13 05:53:53;;;;;;;33.53;29.88;;;18.10;99.90;;;;;;4982601;28;20385;-79
2022/09/13 05:56:22;;;;;;;33.78;30.10;;;18.00;99.90;;;;;;4974977;28;20062;-77
2022/09/13 05:58:49;;;;;;;35.75;31.90;;;18.10;99.90;;;;;;4957968;28;20038;-77
2022/09/13 06:01:18;;;;;;;37.65;31.83;;;18.10;99.90;;;;;;4993157;28;20049;-76
2022/09/13 06:03:48;;;;;;;34.75;30.98;;;18.10;99.90;;;;;;4979845;28;20134;-76
2022/09/13 06:06:14;;;;;;;35.58;31.88;;;18.00;99.90;;;;;;4966054;28;20697;-76
2022/09/13 06:08:40;;;;;;;35.25;31.15;;;18.10;99.90;;;;;;4986330;28;20728;-76
2022/09/13 06:11:08;;;;;;;35.92;32.03;;;18.00;99.90;;;;;;4965876;28;20102;-76
2022/09/13 06:13:35;;;;;;;36.53;32.75;;;18.10;99.90;;;;;;4976798;28;20053;-76
2022/09/13 06:16:04;;;;;;;37.67;33.78;;;18.10;99.90;;;;;;5002116;28;20053;-76
2022/09/13 06:18:33;;;;;;;37.72;33.58;;;18.10;99.90;;;;;;4985273;28;20049;-76
2022/09/13 06:21:04;;;;;;;37.22;33.22;;;18.10;99.90;;;;;;4966922;28;20105;-76
2022/09/13 06:23:34;;;;;;;36.42;32.65;;;18.10;99.90;;;;;;4987082;28;20065;-77
2022/09/13 06:26:02;;;;;;;34.47;30.83;;;18.10;99.90;;;;;;4964885;28;20080;-76
2022/09/13 06:28:28;;;;;;;40.22;33.25;;;18.10;99.90;;;;;;4962063;28;20610;-77
2022/09/13 06:31:02;;;;;;;40.97;33.58;;;18.10;99.90;;;;;;4960557;28;20137;-78
2022/09/13 06:33:27;;;;;;;39.08;33.13;;;18.20;99.90;;;;;;4963698;28;20050;-82
2022/09/13 06:35:53;;;;;;;42.58;35.10;;;18.10;99.90;;;;;;4964292;28;20446;-82
2022/09/13 06:38:19;;;;;;;36.72;32.75;;;18.10;99.90;;;;;;4963679;28;20043;-82
2022/09/13 06:40:45;;;;;;;37.50;32.88;;;18.10;99.90;;;;;;4964221;28;20047;-75
2022/09/13 06:43:10;;;;;;;34.85;31.15;;;18.20;99.90;;;;;;4959218;28;20046;-84
2022/09/13 06:45:36;;;;;;;42.35;34.33;;;18.20;99.90;;;;;;4968071;28;20047;-81
2022/09/13 06:48:02;;;;;;;33.83;30.10;;;18.20;99.90;;;;;;4966082;28;20047;-86
2022/09/13 06:50:28;;;;;;;35.53;30.92;;;18.30;99.90;;;;;;4994651;28;20057;-87
2022/09/13 06:52:55;;;;;;;34.63;30.48;;;18.30;99.90;;;;;;4962656;28;20073;-85
2022/09/13 06:55:21;;;;;;;32.10;27.88;;;18.30;99.90;;;;;;4970995;28;20105;-82
2022/09/13 06:57:47;;;;;;;31.65;28.23;;;18.30;99.90;;;;;;4963229;28;20089;-80
2022/09/13 07:00:13;;;;;;;31.98;28.13;;;18.30;99.90;;;;;;4967315;28;20050;-78
2022/09/13 07:02:38;;;;;;;29.33;24.80;;;18.30;99.90;;;;;;4971231;28;20125;-80
2022/09/13 07:05:05;;;;;;;27.67;24.10;;;18.30;99.90;;;;;;4963699;28;20142;-78
2022/09/13 07:07:30;;;;;;;30.08;24.60;;;18.30;99.90;;;;;;4965122;28;20498;-79
2022/09/13 07:09:56;;;;;;;29.65;25.77;;;18.30;99.90;;;;;;4965401;28;20043;-81
2022/09/13 07:12:22;;;;;;;27.33;23.55;;;18.30;99.90;;;;;;4958588;28;20054;-77
2022/09/13 07:14:47;;;;;;;29.08;22.80;;;18.30;99.90;;;;;;4967339;28;20035;-76
2022/09/13 07:17:13;;;;;;;23.10;20.63;;;18.30;99.90;;;;;;4968192;28;20486;-78
2022/09/13 07:19:39;;;;;;;17.88;14.57;;;18.30;99.90;;;;;;4967759;28;20078;-78
2022/09/13 07:22:05;;;;;;;21.30;16.38;;;18.30;99.90;;;;;;4964662;28;20090;-77
2022/09/13 07:24:30;;;;;;;20.85;17.30;;;18.30;99.90;;;;;;4969276;28;20054;-77
2022/09/13 07:26:56;;;;;;;20.48;17.05;;;18.30;99.90;;;;;;4963416;28;20071;-78
2022/09/13 07:29:22;;;;;;;21.77;16.55;;;18.30;99.90;;;;;;4976547;28;20057;-77
2022/09/13 07:31:51;;;;;;;17.92;15.90;;;18.30;99.90;;;;;;4987926;28;20429;-78
2022/09/13 07:34:19;;;;;;;22.33;16.85;;;18.30;99.90;;;;;;4981989;28;20050;-78
2022/09/13 07:36:46;;;;;;;17.63;15.50;;;18.30;99.90;;;;;;4988788;28;20395;-80
2022/09/13 07:39:12;;;;;;;13.67;11.77;;;18.30;99.90;;;;;;4986469;28;20049;-79
2022/09/13 07:41:38;;;;;;;11.43;8.53;;;18.30;99.90;;;;;;4986029;28;20042;-79
2022/09/13 07:44:06;;;;;;;9.73;6.85;;;18.20;99.90;;;;;;4987163;28;20080;-78
2022/09/13 07:46:40;;;;;;;9.18;6.32;;;18.20;99.90;;;;;;4976146;28;20093;-79
2022/09/13 07:49:06;;;;;;;9.48;5.88;;;18.20;99.90;;;;;;4977601;28;20039;-78
2022/09/13 07:51:34;;;;;;;10.68;6.38;;;18.20;99.90;;;;;;4968790;28;20101;-76
2022/09/13 07:54:03;;;;;;;9.27;5.85;;;18.20;99.90;;;;;;4981481;28;20108;-79
2022/09/13 07:56:31;;;;;;;8.73;5.30;;;18.20;99.90;;;;;;5001495;28;20046;-80
2022/09/13 07:58:59;;;;;;;9.18;5.40;;;18.20;99.90;;;;;;4957433;28;20054;-80
2022/09/13 08:01:33;;;;;;;8.25;4.53;;;18.20;99.90;;;;;;4962740;28;20046;-77
2022/09/13 08:04:10;;;;;;;8.30;4.47;;;18.30;99.90;;;;;;4969928;28;20062;-79
2022/09/13 08:06:36;;;;;;;;;;;18.30;99.90;;;;;;4983331;28;20046;-77
2022/09/13 08:09:03;;;;;;;7.05;4.45;;;18.20;99.90;;;;;;5000258;28;19956;-86
2022/09/13 08:11:37;;;;;;;5.90;4.25;;;18.30;99.90;;;;;;4983373;28;20042;-76
2022/09/13 08:14:04;;;;;;;6.85;4.40;;;18.30;99.90;;;;;;4968745;28;20053;-77
2022/09/13 08:16:30;;;;;;;10.13;4.85;;;18.30;99.90;;;;;;4984099;28;20057;-77
2022/09/13 08:18:59;;;;;;;8.02;4.28;;;18.30;99.90;;;;;;4968088;28;20050;-77
2022/09/13 08:21:26;;;;;;;31.45;6.55;;;18.30;99.90;;;;;;4985937;28;20077;-77
2022/09/13 08:23:58;;;;;;;36.10;6.60;;;18.30;99.90;;;;;;4967033;28;20058;-77
2022/09/13 08:26:24;;;;;;;6.50;3.72;;;18.40;99.90;;;;;;4980343;28;20134;-77
2022/09/13 08:28:58;;;;;;;6.97;3.90;;;18.40;99.90;;;;;;4983705;28;20125;-78
2022/09/13 08:31:25;;;;;;;6.60;3.90;;;18.50;99.90;;;;;;4963060;28;20058;-77
2022/09/13 08:33:52;;;;;;;14.97;3.90;;;18.60;99.90;;;;;;4981987;28;20061;-80
2022/09/13 08:36:18;;;;;;;7.20;3.38;;;18.60;99.90;;;;;;4985363;28;20313;-82
2022/09/13 08:38:48;;;;;;;6.78;2.88;;;18.60;99.90;;;;;;4983443;28;20042;-80
2022/09/13 08:41:29;;;;;;;7.43;2.80;;;18.70;99.90;;;;;;4985419;28;20050;-80
2022/09/13 08:44:04;;;;;;;7.28;2.75;;;18.70;99.90;;;;;;4984740;28;20413;-77
2022/09/13 08:46:38;;;;;;;7.80;2.55;;;18.80;99.90;;;;;;4971502;28;20475;-81
2022/09/13 08:49:11;;;;;;;8.68;2.35;;;18.80;99.90;;;;;;4978225;28;20576;-81
2022/09/13 08:51:48;;;;;;;11.55;2.60;;;18.90;99.90;;;;;;4983544;28;20453;-80
2022/09/13 08:54:15;;;;;;;;;;;18.90;99.90;;;;;;4965306;28;21700;-77
2022/09/13 08:56:51;;;;;;;8.10;2.00;;;19.00;99.90;;;;;;4984240;28;20325;-78
2022/09/13 08:59:58;;;;;;;9.93;2.17;;;19.10;99.90;;;;;;4964803;28;20073;-79
2022/09/13 09:02:36;;;;;;;6.50;1.85;;;19.20;99.90;;;;;;4971031;28;20050;-76
2022/09/13 09:05:26;;;;;;;8.35;2.20;;;19.20;99.90;;;;;;4996890;28;20058;-76
2022/09/13 09:08:08;;;;;;;7.90;1.88;;;19.30;99.90;;;;;;4986165;28;20685;-76
2022/09/13 09:10:47;;;;;;;6.60;1.65;;;19.30;99.90;;;;;;4984451;28;20054;-76
2022/09/13 09:13:19;;;;;;;7.93;1.40;;;19.40;99.90;;;;;;4979901;28;20038;-76
2022/09/13 09:16:00;;;;;;;5.70;1.35;;;19.40;99.90;;;;;;4969276;28;20054;-77
2022/09/13 09:18:35;;;;;;;5.75;1.50;;;19.40;99.90;;;;;;4964377;28;20054;-78
2022/09/13 09:21:02;;;;;;;5.05;1.33;;;19.40;99.90;;;;;;4965938;28;20050;-78
2022/09/13 09:23:38;;;;;;;7.22;1.70;;;19.40;99.90;;;;;;4968567;28;20092;-78
2022/09/13 09:26:25;;;;;;;4.80;1.52;;;19.50;99.90;;;;;;5000786;28;20046;-78
2022/09/13 09:28:58;;;;;;;6.32;1.45;;;19.50;99.90;;;;;;4964520;28;20124;-81
2022/09/13 09:31:47;;;;;;;7.18;1.85;;;19.60;99.90;;;;;;4979829;28;20049;-81
2022/09/13 09:34:50;;;;;;;4.13;1.27;;;19.60;99.90;;;;;;4966774;28;20053;-82
2022/09/13 09:37:20;;;;;;;6.40;1.30;;;19.60;99.90;;;;;;4985550;28;20038;-80
2022/09/13 09:39:47;;;;;;;6.68;1.58;;;19.60;99.90;;;;;;4982957;28;20121;-80
2022/09/13 09:42:27;;;;;;;4.88;1.42;;;19.60;99.90;;;;;;4996177;28;20053;-88
2022/09/13 09:45:05;;;;;;;6.13;1.50;;;19.80;99.90;;;;;;4968497;28;20609;-84
2022/09/13 09:47:41;;;;;;;3.83;1.10;;;19.90;99.90;;;;;;4970486;28;20042;-86
2022/09/13 09:50:13;;;;;;;5.15;1.35;;;19.90;99.90;;;;;;5004693;28;20218;-85
2022/09/13 09:52:50;;;;;;;6.53;1.30;;;19.90;99.90;;;;;;5007835;28;20089;-81
2022/09/13 09:55:26;;;;;;;5.22;1.38;;;19.80;99.90;;;;;;4992919;28;20089;-84
2022/09/13 09:57:55;;;;;;;3.80;1.02;;;19.70;99.90;;;;;;4979868;28;20039;-83
2022/09/13 10:00:34;;;;;;;3.97;1.20;;;19.80;99.90;;;;;;4971657;28;20143;-81
2022/09/13 10:03:23;;;;;;;3.40;1.15;;;19.70;99.90;;;;;;5001516;28;20054;-84
2022/09/13 10:05:49;;;;;;;4.43;1.00;;;19.90;99.90;;;;;;4982356;28;20056;-82
2022/09/13 10:08:27;;;;;;;5.50;1.23;;;20.00;99.90;;;;;;4985474;28;20034;-83
2022/09/13 10:10:56;;;;;;;4.35;1.20;;;20.00;99.90;;;;;;4965595;28;20050;-85
2022/09/13 10:13:23;;;;;;;5.32;1.40;;;20.10;99.90;;;;;;4967672;28;20770;-86
2022/09/13 10:16:03;;;;;;;4.18;1.20;;;20.20;99.90;;;;;;4965501;28;20069;-80
2022/09/13 10:18:31;;;;;;;4.43;1.45;;;20.30;99.90;;;;;;4960454;28;20046;-74
2022/09/13 10:21:05;;;;;;;5.45;1.27;;;20.40;99.90;;;;;;4999353;28;20070;-79
2022/09/13 10:23:34;;;;;;;8.95;2.78;;;20.50;99.90;;;;;;4983780;28;20142;-76
2022/09/13 10:26:02;;;;;;;5.03;1.30;;;20.60;99.90;;;;;;4965756;28;20046;-76
2022/09/13 10:28:31;;;;;;;5.07;1.30;;;20.60;99.90;;;;;;4981609;28;20058;-77
2022/09/13 10:31:09;;;;;;;5.28;1.48;;;20.60;99.90;;;;;;4995961;28;20053;-84
2022/09/13 10:33:48;;;;;;;3.53;1.13;;;20.50;99.90;;;;;;4980334;28;20042;-81
2022/09/13 10:36:18;;;;;;;4.25;0.90;;;20.50;99.90;;;;;;4990868;28;20061;-81
2022/09/13 10:38:58;;;;;;;4.60;0.93;;;20.50;99.90;;;;;;4966237;28;20054;-77
2022/09/13 10:41:27;;;;;;;7.38;1.00;;;20.60;99.90;;;;;;4979585;28;20044;-77
2022/09/13 10:44:01;;;;;;;4.85;1.33;;;20.80;99.90;;;;;;4995461;28;20050;-82
2022/09/13 10:46:32;;;;;;;6.55;1.40;;;20.90;99.90;;;;;;4983594;28;20050;-78
2022/09/13 10:49:00;;;;;;;4.47;1.15;;;20.90;99.90;;;;;;4987798;28;20058;-77
2022/09/13 10:51:25;;;;;;;5.97;1.05;;;21.00;99.90;;;;;;4983166;28;20038;-74
2022/09/13 10:54:19;;;;;;;2.50;0.80;;;21.00;99.90;;;;;;4966550;28;20606;-78
2022/09/13 10:56:49;;;;;;;4.15;1.00;;;21.00;99.90;;;;;;4977723;28;20047;-77
2022/09/13 10:59:22;;;;;;;4.63;0.90;;;21.00;99.90;;;;;;4982298;28;20042;-78
2022/09/13 11:02:27;;;;;;;3.88;0.90;;;21.00;99.90;;;;;;4974837;28;20125;-77
2022/09/13 11:05:22;;;;;;;4.68;0.98;;;21.00;99.90;;;;;;4968802;28;20050;-79
2022/09/13 11:07:54;;;;;;;2.70;0.95;;;20.90;99.90;;;;;;4970651;28;20042;-79
2022/09/13 11:10:30;;;;;;;8.43;1.80;;;20.90;99.90;;;;;;4968390;28;20053;-79
2022/09/13 11:12:58;;;;;;;5.60;1.40;;;21.00;99.90;;;;;;4965244;28;20470;-79
2022/09/13 11:15:27;;;;;;;3.33;0.90;;;21.10;99.90;;;;;;4986994;28;20046;-78
2022/09/13 11:18:07;;;;;;;2.72;0.85;;;21.20;99.90;;;;;;4971775;28;20046;-79
2022/09/13 11:20:39;;;;;;;4.78;1.10;;;21.30;99.90;;;;;;4985980;28;20046;-77
2022/09/13 11:23:05;;;;;;;3.45;0.70;;;21.40;99.90;;;;;;4985071;28;20670;-81
2022/09/13 11:26:01;;;;;;;7.90;1.70;;;21.50;99.90;;;;;;4981997;28;20050;-77
2022/09/13 11:28:44;;;;;;;2.80;0.82;;;21.60;99.90;;;;;;4982814;28;20125;-77
2022/09/13 11:31:31;;;;;;;9.73;1.73;;;21.60;99.90;;;;;;4969695;28;20053;-82
2022/09/13 11:34:10;;;;;;;4.63;0.93;;;21.50;99.90;;;;;;4961754;28;20042;-81
2022/09/13 11:37:13;;;;;;;3.85;0.95;;;21.30;99.90;;;;;;4968309;28;20050;-78
2022/09/13 11:39:58;;;;;;;4.90;0.95;;;21.20;99.90;;;;;;4966736;28;20046;-78
2022/09/13 11:42:58;;;;;;;3.42;0.80;;;21.10;99.90;;;;;;4964820;28;20042;-77
2022/09/13 11:45:27;;;;;;;2.60;1.05;;;21.20;99.90;;;;;;4985793;28;20054;-77
2022/09/13 11:48:11;;;;;;;5.30;0.90;;;21.30;99.90;;;;;;4960775;28;20117;-76
2022/09/13 11:50:48;;;;;;;5.07;0.90;;;21.40;99.90;;;;;;4983215;28;20568;-79
2022/09/13 11:53:49;;;;;;;3.55;0.75;;;21.40;99.90;;;;;;4985095;28;20046;-76
2022/09/13 11:56:33;;;;;;;3.95;1.00;;;21.60;99.90;;;;;;4985401;28;20046;-76
2022/09/13 11:59:20;;;;;;;5.22;1.00;;;21.60;99.90;;;;;;4964683;28;20547;-76
2022/09/13 12:01:51;;;;;;;;;;;21.60;99.90;;;;;;4969033;28;20042;-76
2022/09/13 12:04:44;;;;;;;7.05;0.80;;;21.50;99.90;;;;;;4985827;28;19985;-76
2022/09/13 12:07:42;;;;;;;4.78;0.82;;;21.50;99.90;;;;;;4984472;28;20046;-76
2022/09/13 12:10:16;;;;;;;3.53;0.77;;;21.50;99.90;;;;;;4954686;28;20054;-81
2022/09/13 12:12:43;;;;;;;6.45;1.00;;;21.50;99.90;;;;;;4986945;28;20049;-82
2022/09/13 12:15:17;;;;;;;;;;;21.60;99.90;;;;;;4968151;28;20493;-80
2022/09/13 12:17:53;;;;;;;3.78;0.82;;;21.60;99.90;;;;;;4982277;28;20007;-79
2022/09/13 12:20:33;;;;;;;2.97;0.90;;;21.60;99.90;;;;;;4982883;28;20039;-76
2022/09/13 12:23:03;;;;;;;3.85;0.90;;;21.70;99.90;;;;;;4985006;28;20506;-75
2022/09/13 12:25:58;;;;;;;3.47;1.17;;;21.70;99.90;;;;;;4969088;28;20509;-76
2022/09/13 12:28:28;;;;;;;5.25;0.80;;;21.60;99.90;;;;;;4967461;28;20101;-76
2022/09/13 12:31:08;;;;;;;2.65;0.90;;;21.50;99.90;;;;;;4968042;28;20473;-76
2022/09/13 12:33:39;;;;;;;4.00;0.90;;;21.50;99.90;;;;;;4980754;28;20060;-75
2022/09/13 12:36:33;;;;;;;4.28;0.80;;;21.60;99.90;;;;;;4967344;28;20129;-76
2022/09/13 12:39:25;;;;;;;3.67;0.70;;;21.60;99.90;;;;;;4967275;28;20057;-77
2022/09/13 12:42:00;;;;;;;4.10;0.85;;;21.70;99.90;;;;;;4928219;28;20065;-76
2022/09/13 12:44:53;;;;;;;3.97;0.90;;;21.80;99.90;;;;;;4984736;28;20050;-76
2022/09/13 12:47:28;;;;;;;3.15;0.82;;;21.90;99.90;;;;;;4966054;28;20188;-76
2022/09/13 12:50:15;;;;;;;4.07;1.40;;;22.00;99.90;;;;;;5001514;28;20061;-76
2022/09/13 12:52:52;;;;;;;5.75;1.10;;;22.10;99.90;;;;;;4966094;28;20049;-76
2022/09/13 12:55:42;;;;;;;4.38;0.95;;;22.20;99.90;;;;;;4964209;28;20047;-75
2022/09/13 12:58:16;;;;;;;4.55;1.40;;;22.20;99.20;;;;;;4961467;28;20042;-76
2022/09/13 13:01:04;;;;;;;5.30;1.50;;;22.20;98.60;;;;;;4982930;28;20078;-76
2022/09/13 13:03:34;;;;;;;6.35;1.67;;;22.20;98.80;;;;;;4954323;28;20398;-76
2022/09/13 13:06:21;;;;;;;3.28;0.80;;;22.20;99.10;;;;;;4997337;28;20038;-78
2022/09/13 13:08:53;;;;;;;5.38;0.98;;;22.20;97.80;;;;;;4979333;28;20263;-79